sensor_id;sensor_type;location;lat;lon;timestamp;temperature;humidity
37158;DHT22;23050;51.776;22.638;2023-02-23T00:01:55;-0.20;99.90
37158;DHT22;23050;51.776;22.638;2023-02-23T00:04:22;-0.20;99.90
37158;DHT22;23050;51.776;22.638;2023-02-23T00:06:48;-0.20;99.90
37158;DHT22;23050;51.776;22.638;2023-02-23T00:09:16;-0.20;99.90
37158;DHT22;23050;51.776;22.638;2023-02-23T00:11:54;-0.30;99.90
37158;DHT22;23050;51.776;22.638;2023-02-23T00:14:20;-0.20;99.90
37158;DHT22;23050;51.776;22.638;2023-02-23T00:16:47;-0.20;99.90
37158;DHT22;23050;51.776;22.638;2023-02-23T00:19:13;-0.20;99.90
37158;DHT22;23050;51.776;22.638;2023-02-23T00:21:40;-0.20;99.90
37158;DHT22;23050;51.776;22.638;2023-02-23T00:24:08;-0.20;98.00
37158;DHT22;23050;51.776;22.638;2023-02-23T00:26:36;-0.30;93.90
37158;DHT22;23050;51.776;22.638;2023-02-23T00:29:04;-0.30;92.90
37158;DHT22;23050;51.776;22.638;2023-02-23T00:31:30;-0.30;92.00
37158;DHT22;23050;51.776;22.638;2023-02-23T00:33:58;-0.30;92.00
37158;DHT22;23050;51.776;22.638;2023-02-23T00:36:28;-0.30;93.00
37158;DHT22;23050;51.776;22.638;2023-02-23T00:38:56;-0.30;93.40
37158;DHT22;23050;51.776;22.638;2023-02-23T00:41:22;-0.30;94.50
37158;DHT22;23050;51.776;22.638;2023-02-23T00:43:53;-0.30;93.80
37158;DHT22;23050;51.776;22.638;2023-02-23T00:46:21;-0.30;95.20
37158;DHT22;23050;51.776;22.638;2023-02-23T00:48:48;-0.30;95.60
37158;DHT22;23050;51.776;22.638;2023-02-23T00:51:14;-0.30;96.10
37158;DHT22;23050;51.776;22.638;2023-02-23T00:53:40;-0.30;95.80
37158;DHT22;23050;51.776;22.638;2023-02-23T00:56:09;-0.30;96.40
37158;DHT22;23050;51.776;22.638;2023-02-23T00:58:35;-0.30;97.10
37158;DHT22;23050;51.776;22.638;2023-02-23T01:01:01;-0.30;97.20
37158;DHT22;23050;51.776;22.638;2023-02-23T01:03:29;-0.30;96.40
37158;DHT22;23050;51.776;22.638;2023-02-23T01:05:59;-0.30;96.80
37158;DHT22;23050;51.776;22.638;2023-02-23T01:08:28;-0.30;96.10
37158;DHT22;23050;51.776;22.638;2023-02-23T01:10:54;-0.30;95.30
37158;DHT22;23050;51.776;22.638;2023-02-23T01:13:20;-0.30;96.10
37158;DHT22;23050;51.776;22.638;2023-02-23T01:15:46;-0.30;96.50
37158;DHT22;23050;51.776;22.638;2023-02-23T01:18:16;-0.30;96.90
37158;DHT22;23050;51.776;22.638;2023-02-23T01:20:43;-0.30;96.00
37158;DHT22;23050;51.776;22.638;2023-02-23T01:23:14;-0.30;92.90
37158;DHT22;23050;51.776;22.638;2023-02-23T01:25:43;-0.30;92.30
37158;DHT22;23050;51.776;22.638;2023-02-23T01:28:10;-0.40;84.70
37158;DHT22;23050;51.776;22.638;2023-02-23T01:30:36;-0.40;87.30
37158;DHT22;23050;51.776;22.638;2023-02-23T01:33:02;-0.40;87.20
37158;DHT22;23050;51.776;22.638;2023-02-23T01:35:28;-0.40;89.00
37158;DHT22;23050;51.776;22.638;2023-02-23T01:37:54;-0.30;89.20
37158;DHT22;23050;51.776;22.638;2023-02-23T01:40:22;-0.40;85.40
37158;DHT22;23050;51.776;22.638;2023-02-23T01:42:58;-0.40;84.80
37158;DHT22;23050;51.776;22.638;2023-02-23T01:45:28;-0.40;85.40
37158;DHT22;23050;51.776;22.638;2023-02-23T01:47:57;-0.40;85.70
37158;DHT22;23050;51.776;22.638;2023-02-23T01:50:27;-0.40;86.20
37158;DHT22;23050;51.776;22.638;2023-02-23T01:52:54;-0.40;85.70
37158;DHT22;23050;51.776;22.638;2023-02-23T01:55:21;-0.40;85.70
37158;DHT22;23050;51.776;22.638;2023-02-23T01:57:53;-0.40;86.90
37158;DHT22;23050;51.776;22.638;2023-02-23T02:00:21;-0.40;87.70
37158;DHT22;23050;51.776;22.638;2023-02-23T02:02:50;-0.40;87.90
37158;DHT22;23050;51.776;22.638;2023-02-23T02:05:17;-0.40;87.40
37158;DHT22;23050;51.776;22.638;2023-02-23T02:07:46;-0.40;89.10
37158;DHT22;23050;51.776;22.638;2023-02-23T02:10:12;-0.40;90.80
37158;DHT22;23050;51.776;22.638;2023-02-23T02:12:50;-0.40;90.40
37158;DHT22;23050;51.776;22.638;2023-02-23T02:15:17;-0.40;90.60
37158;DHT22;23050;51.776;22.638;2023-02-23T02:18:09;-0.40;90.70
37158;DHT22;23050;51.776;22.638;2023-02-23T02:30:01;-0.40;91.70
37158;DHT22;23050;51.776;22.638;2023-02-23T02:32:52;-0.40;91.90
37158;DHT22;23050;51.776;22.638;2023-02-23T02:38:59;-0.40;91.60
37158;DHT22;23050;51.776;22.638;2023-02-23T02:42:04;-0.40;91.50
37158;DHT22;23050;51.776;22.638;2023-02-23T02:44:53;-0.40;91.90
37158;DHT22;23050;51.776;22.638;2023-02-23T02:47:57;-0.50;89.50
37158;DHT22;23050;51.776;22.638;2023-02-23T02:50:35;-0.50;88.70
37158;DHT22;23050;51.776;22.638;2023-02-23T02:53:06;-0.50;85.50
37158;DHT22;23050;51.776;22.638;2023-02-23T02:55:34;-0.50;81.90
37158;DHT22;23050;51.776;22.638;2023-02-23T02:58:04;-0.50;84.50
37158;DHT22;23050;51.776;22.638;2023-02-23T03:00:45;-0.50;80.90
37158;DHT22;23050;51.776;22.638;2023-02-23T03:03:35;-0.50;75.50
37158;DHT22;23050;51.776;22.638;2023-02-23T03:06:23;-0.50;73.80
37158;DHT22;23050;51.776;22.638;2023-02-23T03:09:41;-0.60;66.50
37158;DHT22;23050;51.776;22.638;2023-02-23T03:19:22;-0.50;62.50
37158;DHT22;23050;51.776;22.638;2023-02-23T03:22:25;-0.50;54.60
37158;DHT22;23050;51.776;22.638;2023-02-23T03:25:15;-0.50;50.70
37158;DHT22;23050;51.776;22.638;2023-02-23T03:28:10;-0.50;54.20
37158;DHT22;23050;51.776;22.638;2023-02-23T03:31:08;-0.60;47.90
37158;DHT22;23050;51.776;22.638;2023-02-23T03:34:33;-0.60;52.90
37158;DHT22;23050;51.776;22.638;2023-02-23T03:37:27;-0.60;48.10
37158;DHT22;23050;51.776;22.638;2023-02-23T03:40:26;-0.60;50.80
37158;DHT22;23050;51.776;22.638;2023-02-23T03:43:16;-0.60;44.30
37158;DHT22;23050;51.776;22.638;2023-02-23T03:46:03;-0.60;43.50
37158;DHT22;23050;51.776;22.638;2023-02-23T03:48:52;-0.60;41.10
37158;DHT22;23050;51.776;22.638;2023-02-23T03:51:41;-0.60;39.20
37158;DHT22;23050;51.776;22.638;2023-02-23T03:54:33;-0.60;32.40
37158;DHT22;23050;51.776;22.638;2023-02-23T03:57:21;-0.60;35.60
37158;DHT22;23050;51.776;22.638;2023-02-23T04:00:09;-0.60;33.50
37158;DHT22;23050;51.776;22.638;2023-02-23T04:02:55;-0.60;32.00
37158;DHT22;23050;51.776;22.638;2023-02-23T04:05:40;-0.60;34.10
37158;DHT22;23050;51.776;22.638;2023-02-23T04:08:31;-0.60;35.70
37158;DHT22;23050;51.776;22.638;2023-02-23T04:14:30;-0.60;30.30
37158;DHT22;23050;51.776;22.638;2023-02-23T04:17:01;-0.60;32.00
37158;DHT22;23050;51.776;22.638;2023-02-23T04:19:28;-0.70;31.70
37158;DHT22;23050;51.776;22.638;2023-02-23T04:21:53;-0.70;34.40
37158;DHT22;23050;51.776;22.638;2023-02-23T04:24:19;-0.70;30.70
37158;DHT22;23050;51.776;22.638;2023-02-23T04:26:45;-0.70;32.10
37158;DHT22;23050;51.776;22.638;2023-02-23T04:29:11;-0.60;31.00
37158;DHT22;23050;51.776;22.638;2023-02-23T04:31:37;-0.70;28.60
37158;DHT22;23050;51.776;22.638;2023-02-23T04:34:02;-0.70;30.60
37158;DHT22;23050;51.776;22.638;2023-02-23T04:36:29;-0.70;35.20
37158;DHT22;23050;51.776;22.638;2023-02-23T04:38:55;-0.70;33.40
37158;DHT22;23050;51.776;22.638;2023-02-23T04:41:20;-0.70;33.80
37158;DHT22;23050;51.776;22.638;2023-02-23T04:43:46;-0.70;33.90
37158;DHT22;23050;51.776;22.638;2023-02-23T04:46:12;-0.70;27.60
37158;DHT22;23050;51.776;22.638;2023-02-23T04:48:37;-0.70;28.70
37158;DHT22;23050;51.776;22.638;2023-02-23T04:51:03;-0.70;27.50
37158;DHT22;23050;51.776;22.638;2023-02-23T04:53:29;-0.70;28.20
37158;DHT22;23050;51.776;22.638;2023-02-23T04:55:54;-0.70;27.10
37158;DHT22;23050;51.776;22.638;2023-02-23T04:58:20;-0.70;25.30
37158;DHT22;23050;51.776;22.638;2023-02-23T05:00:45;-0.70;26.50
37158;DHT22;23050;51.776;22.638;2023-02-23T05:03:11;-0.70;28.00
37158;DHT22;23050;51.776;22.638;2023-02-23T05:05:37;-0.70;30.20
37158;DHT22;23050;51.776;22.638;2023-02-23T05:08:04;-0.70;27.80
37158;DHT22;23050;51.776;22.638;2023-02-23T05:10:30;-0.70;29.00
37158;DHT22;23050;51.776;22.638;2023-02-23T05:12:56;-0.80;26.30
37158;DHT22;23050;51.776;22.638;2023-02-23T05:15:22;-0.70;24.80
37158;DHT22;23050;51.776;22.638;2023-02-23T05:17:48;-0.70;25.60
37158;DHT22;23050;51.776;22.638;2023-02-23T05:20:13;-0.70;27.60
37158;DHT22;23050;51.776;22.638;2023-02-23T05:22:40;-0.70;25.70
37158;DHT22;23050;51.776;22.638;2023-02-23T05:25:06;-0.70;28.90
37158;DHT22;23050;51.776;22.638;2023-02-23T05:27:33;-0.70;32.70
37158;DHT22;23050;51.776;22.638;2023-02-23T05:29:59;-0.70;28.30
37158;DHT22;23050;51.776;22.638;2023-02-23T05:32:24;-0.70;28.40
37158;DHT22;23050;51.776;22.638;2023-02-23T05:34:50;-0.70;31.60
37158;DHT22;23050;51.776;22.638;2023-02-23T05:37:16;-0.70;27.50
37158;DHT22;23050;51.776;22.638;2023-02-23T05:39:41;-0.70;25.70
37158;DHT22;23050;51.776;22.638;2023-02-23T05:42:07;-0.70;29.40
37158;DHT22;23050;51.776;22.638;2023-02-23T05:44:32;-0.70;31.20
37158;DHT22;23050;51.776;22.638;2023-02-23T05:46:58;-0.70;29.20
37158;DHT22;23050;51.776;22.638;2023-02-23T05:49:23;-0.70;26.10
37158;DHT22;23050;51.776;22.638;2023-02-23T05:51:49;-0.70;30.20
37158;DHT22;23050;51.776;22.638;2023-02-23T05:54:15;-0.70;28.90
37158;DHT22;23050;51.776;22.638;2023-02-23T05:56:41;-0.70;27.40
37158;DHT22;23050;51.776;22.638;2023-02-23T05:59:07;-0.70;30.70
37158;DHT22;23050;51.776;22.638;2023-02-23T06:01:33;-0.70;27.40
37158;DHT22;23050;51.776;22.638;2023-02-23T06:03:58;-0.70;26.50
37158;DHT22;23050;51.776;22.638;2023-02-23T06:06:24;-0.70;28.50
37158;DHT22;23050;51.776;22.638;2023-02-23T06:08:51;-0.60;29.70
37158;DHT22;23050;51.776;22.638;2023-02-23T06:11:17;-0.60;29.70
37158;DHT22;23050;51.776;22.638;2023-02-23T06:13:42;-0.60;31.70
37158;DHT22;23050;51.776;22.638;2023-02-23T06:16:08;-0.60;31.90
37158;DHT22;23050;51.776;22.638;2023-02-23T06:18:33;-0.60;28.90
37158;DHT22;23050;51.776;22.638;2023-02-23T06:21:00;-0.60;30.00
37158;DHT22;23050;51.776;22.638;2023-02-23T06:23:30;-0.60;30.00
37158;DHT22;23050;51.776;22.638;2023-02-23T06:25:56;-0.50;30.80
37158;DHT22;23050;51.776;22.638;2023-02-23T06:28:22;-0.60;27.20
37158;DHT22;23050;51.776;22.638;2023-02-23T06:30:54;-0.50;27.70
37158;DHT22;23050;51.776;22.638;2023-02-23T06:33:20;-0.50;27.70
37158;DHT22;23050;51.776;22.638;2023-02-23T06:35:45;-0.50;26.80
37158;DHT22;23050;51.776;22.638;2023-02-23T06:38:11;-0.40;22.40
37158;DHT22;23050;51.776;22.638;2023-02-23T06:40:38;-0.40;24.00
37158;DHT22;23050;51.776;22.638;2023-02-23T06:43:04;-0.30;15.60
37158;DHT22;23050;51.776;22.638;2023-02-23T06:45:30;-0.30;15.60
37158;DHT22;23050;51.776;22.638;2023-02-23T06:47:57;-0.30;15.60
37158;DHT22;23050;51.776;22.638;2023-02-23T06:50:23;-0.20;14.60
37158;DHT22;23050;51.776;22.638;2023-02-23T06:52:49;0.00;13.20
37158;DHT22;23050;51.776;22.638;2023-02-23T06:55:14;0.20;3.60
37158;DHT22;23050;51.776;22.638;2023-02-23T06:57:40;0.30;2.50
37158;DHT22;23050;51.776;22.638;2023-02-23T07:00:07;0.60;1.00
37158;DHT22;23050;51.776;22.638;2023-02-23T07:02:33;0.60;1.00
37158;DHT22;23050;51.776;22.638;2023-02-23T07:05:00;0.80;1.00
37158;DHT22;23050;51.776;22.638;2023-02-23T07:07:26;1.10;1.00
37158;DHT22;23050;51.776;22.638;2023-02-23T07:09:52;1.50;1.00
37158;DHT22;23050;51.776;22.638;2023-02-23T07:12:17;1.50;1.00
37158;DHT22;23050;51.776;22.638;2023-02-23T07:14:43;1.60;1.00
37158;DHT22;23050;51.776;22.638;2023-02-23T07:17:09;1.70;1.00
37158;DHT22;23050;51.776;22.638;2023-02-23T07:19:34;1.40;1.00
37158;DHT22;23050;51.776;22.638;2023-02-23T07:22:00;1.20;1.00
37158;DHT22;23050;51.776;22.638;2023-02-23T07:24:25;1.00;1.00
37158;DHT22;23050;51.776;22.638;2023-02-23T07:26:52;1.20;1.00
37158;DHT22;23050;51.776;22.638;2023-02-23T07:29:18;2.00;1.00
37158;DHT22;23050;51.776;22.638;2023-02-23T07:31:44;2.10;1.00
37158;DHT22;23050;51.776;22.638;2023-02-23T07:34:10;1.80;1.00
37158;DHT22;23050;51.776;22.638;2023-02-23T07:36:36;1.60;1.00
37158;DHT22;23050;51.776;22.638;2023-02-23T07:39:03;1.40;1.00
37158;DHT22;23050;51.776;22.638;2023-02-23T07:41:29;1.30;1.00
37158;DHT22;23050;51.776;22.638;2023-02-23T07:43:55;1.20;1.00
37158;DHT22;23050;51.776;22.638;2023-02-23T07:46:20;1.30;1.00
37158;DHT22;23050;51.776;22.638;2023-02-23T07:48:46;1.30;1.00
37158;DHT22;23050;51.776;22.638;2023-02-23T07:51:13;1.30;1.00
37158;DHT22;23050;51.776;22.638;2023-02-23T07:53:40;1.30;1.00
37158;DHT22;23050;51.776;22.638;2023-02-23T07:56:07;1.30;1.00
37158;DHT22;23050;51.776;22.638;2023-02-23T07:58:34;1.50;1.00
37158;DHT22;23050;51.776;22.638;2023-02-23T08:01:00;1.80;1.00
37158;DHT22;23050;51.776;22.638;2023-02-23T08:03:26;2.10;1.00
37158;DHT22;23050;51.776;22.638;2023-02-23T08:05:52;2.80;1.00
37158;DHT22;23050;51.776;22.638;2023-02-23T08:08:17;3.00;1.00
37158;DHT22;23050;51.776;22.638;2023-02-23T08:10:43;3.00;1.00
37158;DHT22;23050;51.776;22.638;2023-02-23T08:13:08;2.60;1.00
37158;DHT22;23050;51.776;22.638;2023-02-23T08:15:34;2.50;1.00
37158;DHT22;23050;51.776;22.638;2023-02-23T08:17:59;3.10;1.00
37158;DHT22;23050;51.776;22.638;2023-02-23T08:20:25;3.20;1.00
37158;DHT22;23050;51.776;22.638;2023-02-23T08:22:55;3.50;1.00
37158;DHT22;23050;51.776;22.638;2023-02-23T08:25:21;3.80;1.00
37158;DHT22;23050;51.776;22.638;2023-02-23T08:27:48;3.80;1.00
37158;DHT22;23050;51.776;22.638;2023-02-23T08:30:16;4.10;1.00
37158;DHT22;23050;51.776;22.638;2023-02-23T08:32:43;4.50;1.00
37158;DHT22;23050;51.776;22.638;2023-02-23T08:35:09;4.00;1.00
37158;DHT22;23050;51.776;22.638;2023-02-23T08:37:35;3.80;1.00
37158;DHT22;23050;51.776;22.638;2023-02-23T08:40:00;3.70;1.00
37158;DHT22;23050;51.776;22.638;2023-02-23T08:42:26;3.10;1.00
37158;DHT22;23050;51.776;22.638;2023-02-23T08:44:52;2.80;1.00
37158;DHT22;23050;51.776;22.638;2023-02-23T08:47:18;2.70;1.00
37158;DHT22;23050;51.776;22.638;2023-02-23T08:49:48;2.60;1.00
37158;DHT22;23050;51.776;22.638;2023-02-23T08:52:14;2.50;1.00
37158;DHT22;23050;51.776;22.638;2023-02-23T08:54:40;2.50;1.00
37158;DHT22;23050;51.776;22.638;2023-02-23T08:57:05;2.70;1.00
37158;DHT22;23050;51.776;22.638;2023-02-23T08:59:31;2.90;1.00
37158;DHT22;23050;51.776;22.638;2023-02-23T09:01:57;2.90;1.00
37158;DHT22;23050;51.776;22.638;2023-02-23T09:04:22;3.00;1.00
37158;DHT22;23050;51.776;22.638;2023-02-23T09:06:48;3.40;1.00
37158;DHT22;23050;51.776;22.638;2023-02-23T09:09:14;4.10;1.00
37158;DHT22;23050;51.776;22.638;2023-02-23T09:11:40;4.20;1.00
37158;DHT22;23050;51.776;22.638;2023-02-23T09:14:06;3.50;1.00
37158;DHT22;23050;51.776;22.638;2023-02-23T09:16:33;3.20;1.00
37158;DHT22;23050;51.776;22.638;2023-02-23T09:19:00;3.10;1.00
37158;DHT22;23050;51.776;22.638;2023-02-23T09:21:26;3.10;1.00
37158;DHT22;23050;51.776;22.638;2023-02-23T09:23:54;3.50;1.00
37158;DHT22;23050;51.776;22.638;2023-02-23T09:26:21;3.80;1.00
37158;DHT22;23050;51.776;22.638;2023-02-23T09:28:47;4.00;1.00
37158;DHT22;23050;51.776;22.638;2023-02-23T09:31:15;4.60;1.00
37158;DHT22;23050;51.776;22.638;2023-02-23T09:33:41;4.70;1.00
37158;DHT22;23050;51.776;22.638;2023-02-23T09:36:13;5.10;1.00
37158;DHT22;23050;51.776;22.638;2023-02-23T09:38:41;4.90;1.00
37158;DHT22;23050;51.776;22.638;2023-02-23T09:43:58;5.10;1.00
37158;DHT22;23050;51.776;22.638;2023-02-23T09:46:29;5.20;1.00
37158;DHT22;23050;51.776;22.638;2023-02-23T09:49:00;5.20;1.00
37158;DHT22;23050;51.776;22.638;2023-02-23T09:51:27;4.90;1.00
37158;DHT22;23050;51.776;22.638;2023-02-23T09:53:56;4.90;1.00
37158;DHT22;23050;51.776;22.638;2023-02-23T09:56:26;4.60;1.00
37158;DHT22;23050;51.776;22.638;2023-02-23T09:58:54;4.20;1.00
37158;DHT22;23050;51.776;22.638;2023-02-23T10:06:44;4.40;1.00
37158;DHT22;23050;51.776;22.638;2023-02-23T10:09:29;4.50;1.00
37158;DHT22;23050;51.776;22.638;2023-02-23T10:12:02;4.60;1.00
37158;DHT22;23050;51.776;22.638;2023-02-23T10:17:21;4.80;1.00
37158;DHT22;23050;51.776;22.638;2023-02-23T10:19:59;5.00;1.00
37158;DHT22;23050;51.776;22.638;2023-02-23T10:22:28;4.90;1.00
37158;DHT22;23050;51.776;22.638;2023-02-23T10:25:05;4.90;1.00
37158;DHT22;23050;51.776;22.638;2023-02-23T10:27:39;5.10;1.00
37158;DHT22;23050;51.776;22.638;2023-02-23T10:30:25;5.20;1.00
37158;DHT22;23050;51.776;22.638;2023-02-23T10:35:38;5.40;1.00
37158;DHT22;23050;51.776;22.638;2023-02-23T10:38:04;5.10;1.00
37158;DHT22;23050;51.776;22.638;2023-02-23T10:40:32;5.00;1.00
37158;DHT22;23050;51.776;22.638;2023-02-23T10:43:00;4.90;1.00
37158;DHT22;23050;51.776;22.638;2023-02-23T10:45:28;5.20;1.00
37158;DHT22;23050;51.776;22.638;2023-02-23T10:48:03;5.40;1.00
37158;DHT22;23050;51.776;22.638;2023-02-23T10:50:29;5.40;1.00
37158;DHT22;23050;51.776;22.638;2023-02-23T10:53:03;5.00;1.00
37158;DHT22;23050;51.776;22.638;2023-02-23T10:55:35;5.00;1.00
37158;DHT22;23050;51.776;22.638;2023-02-23T10:58:02;5.40;1.00
37158;DHT22;23050;51.776;22.638;2023-02-23T11:00:30;5.30;1.00
37158;DHT22;23050;51.776;22.638;2023-02-23T11:02:59;5.40;1.00
37158;DHT22;23050;51.776;22.638;2023-02-23T11:05:42;4.90;1.00
37158;DHT22;23050;51.776;22.638;2023-02-23T11:08:12;5.20;1.00
37158;DHT22;23050;51.776;22.638;2023-02-23T11:13:42;5.20;1.00
37158;DHT22;23050;51.776;22.638;2023-02-23T11:16:10;5.30;1.00
37158;DHT22;23050;51.776;22.638;2023-02-23T11:18:39;5.80;1.00
37158;DHT22;23050;51.776;22.638;2023-02-23T11:21:12;5.90;1.00
37158;DHT22;23050;51.776;22.638;2023-02-23T11:23:43;5.80;1.00
37158;DHT22;23050;51.776;22.638;2023-02-23T11:26:21;5.70;1.00
37158;DHT22;23050;51.776;22.638;2023-02-23T11:28:55;5.80;1.00
37158;DHT22;23050;51.776;22.638;2023-02-23T11:31:29;5.80;1.00
37158;DHT22;23050;51.776;22.638;2023-02-23T11:33:55;5.40;1.00
37158;DHT22;23050;51.776;22.638;2023-02-23T11:38:47;5.20;1.00
37158;DHT22;23050;51.776;22.638;2023-02-23T11:41:22;5.40;1.00
37158;DHT22;23050;51.776;22.638;2023-02-23T11:43:50;5.50;1.00
37158;DHT22;23050;51.776;22.638;2023-02-23T11:46:18;5.50;1.00
37158;DHT22;23050;51.776;22.638;2023-02-23T11:48:58;5.60;1.00
37158;DHT22;23050;51.776;22.638;2023-02-23T11:53:51;5.60;1.00
37158;DHT22;23050;51.776;22.638;2023-02-23T11:56:20;5.50;1.00
37158;DHT22;23050;51.776;22.638;2023-02-23T11:58:52;5.70;1.00
37158;DHT22;23050;51.776;22.638;2023-02-23T12:01:34;5.70;1.00
37158;DHT22;23050;51.776;22.638;2023-02-23T12:04:01;5.70;1.00
37158;DHT22;23050;51.776;22.638;2023-02-23T12:06:34;5.70;1.00
37158;DHT22;23050;51.776;22.638;2023-02-23T12:11:46;5.90;1.00
37158;DHT22;23050;51.776;22.638;2023-02-23T12:14:42;5.90;1.00
37158;DHT22;23050;51.776;22.638;2023-02-23T12:17:22;6.00;1.00
37158;DHT22;23050;51.776;22.638;2023-02-23T12:20:05;5.90;1.00
37158;DHT22;23050;51.776;22.638;2023-02-23T12:22:38;5.70;1.00
37158;DHT22;23050;51.776;22.638;2023-02-23T12:27:55;5.80;1.00
37158;DHT22;23050;51.776;22.638;2023-02-23T12:30:25;5.90;1.00
37158;DHT22;23050;51.776;22.638;2023-02-23T12:33:03;5.70;1.00
37158;DHT22;23050;51.776;22.638;2023-02-23T12:35:43;5.70;1.00
37158;DHT22;23050;51.776;22.638;2023-02-23T12:41:13;5.50;1.00
37158;DHT22;23050;51.776;22.638;2023-02-23T12:46:12;5.50;1.00
37158;DHT22;23050;51.776;22.638;2023-02-23T12:48:51;5.60;1.00
37158;DHT22;23050;51.776;22.638;2023-02-23T12:51:29;5.50;1.00
37158;DHT22;23050;51.776;22.638;2023-02-23T12:53:57;5.40;1.00
37158;DHT22;23050;51.776;22.638;2023-02-23T12:56:28;5.30;1.00
37158;DHT22;23050;51.776;22.638;2023-02-23T13:01:58;5.40;1.00
37158;DHT22;23050;51.776;22.638;2023-02-23T13:21:01;5.80;1.00
37158;DHT22;23050;51.776;22.638;2023-02-23T13:23:34;5.80;1.00
37158;DHT22;23050;51.776;22.638;2023-02-23T13:26:18;5.80;1.00
37158;DHT22;23050;51.776;22.638;2023-02-23T13:31:30;5.80;1.00
37158;DHT22;23050;51.776;22.638;2023-02-23T13:33:57;5.80;1.00
37158;DHT22;23050;51.776;22.638;2023-02-23T13:36:27;5.60;1.00
37158;DHT22;23050;51.776;22.638;2023-02-23T13:44:42;6.00;1.00
37158;DHT22;23050;51.776;22.638;2023-02-23T13:47:29;5.90;1.00
37158;DHT22;23050;51.776;22.638;2023-02-23T13:50:18;6.10;1.00
37158;DHT22;23050;51.776;22.638;2023-02-23T13:52:47;5.90;1.00
37158;DHT22;23050;51.776;22.638;2023-02-23T13:58:04;5.60;1.00
37158;DHT22;23050;51.776;22.638;2023-02-23T14:00:30;5.60;1.00
37158;DHT22;23050;51.776;22.638;2023-02-23T14:03:02;5.70;1.00
37158;DHT22;23050;51.776;22.638;2023-02-23T14:05:29;5.70;1.00
37158;DHT22;23050;51.776;22.638;2023-02-23T14:08:01;5.60;1.00
37158;DHT22;23050;51.776;22.638;2023-02-23T14:10:36;5.70;1.00
37158;DHT22;23050;51.776;22.638;2023-02-23T14:16:06;5.50;1.00
37158;DHT22;23050;51.776;22.638;2023-02-23T14:18:32;5.40;1.00
37158;DHT22;23050;51.776;22.638;2023-02-23T14:21:12;5.30;1.00
37158;DHT22;23050;51.776;22.638;2023-02-23T14:34:46;5.30;1.00
37158;DHT22;23050;51.776;22.638;2023-02-23T14:39:48;5.10;1.00
37158;DHT22;23050;51.776;22.638;2023-02-23T14:42:23;5.00;1.00
37158;DHT22;23050;51.776;22.638;2023-02-23T14:44:54;4.90;1.00
37158;DHT22;23050;51.776;22.638;2023-02-23T14:47:22;4.70;1.00
37158;DHT22;23050;51.776;22.638;2023-02-23T14:50:00;4.60;1.00
37158;DHT22;23050;51.776;22.638;2023-02-23T14:52:34;4.60;1.00
37158;DHT22;23050;51.776;22.638;2023-02-23T14:57:41;4.60;1.00
37158;DHT22;23050;51.776;22.638;2023-02-23T15:02:55;4.60;1.00
37158;DHT22;23050;51.776;22.638;2023-02-23T15:05:33;4.60;1.00
37158;DHT22;23050;51.776;22.638;2023-02-23T15:08:02;4.60;1.00
37158;DHT22;23050;51.776;22.638;2023-02-23T15:12:58;4.40;1.00
37158;DHT22;23050;51.776;22.638;2023-02-23T15:15:26;4.30;2.70
37158;DHT22;23050;51.776;22.638;2023-02-23T15:17:54;4.20;10.40
37158;DHT22;23050;51.776;22.638;2023-02-23T15:20:23;4.10;17.90
37158;DHT22;23050;51.776;22.638;2023-02-23T15:22:54;3.90;19.30
37158;DHT22;23050;51.776;22.638;2023-02-23T15:25:24;3.80;23.50
37158;DHT22;23050;51.776;22.638;2023-02-23T15:27:51;3.70;26.40
37158;DHT22;23050;51.776;22.638;2023-02-23T15:30:29;3.70;31.30
37158;DHT22;23050;51.776;22.638;2023-02-23T15:33:09;3.60;39.30
37158;DHT22;23050;51.776;22.638;2023-02-23T15:35:47;3.50;35.50
37158;DHT22;23050;51.776;22.638;2023-02-23T15:38:22;3.40;38.90
37158;DHT22;23050;51.776;22.638;2023-02-23T15:40:53;3.40;41.90
37158;DHT22;23050;51.776;22.638;2023-02-23T15:43:20;3.30;46.50
37158;DHT22;23050;51.776;22.638;2023-02-23T15:45:50;3.20;48.70
37158;DHT22;23050;51.776;22.638;2023-02-23T15:48:19;3.20;51.20
37158;DHT22;23050;51.776;22.638;2023-02-23T15:50:51;3.10;53.80
37158;DHT22;23050;51.776;22.638;2023-02-23T15:53:31;3.10;57.30
37158;DHT22;23050;51.776;22.638;2023-02-23T15:56:19;3.00;62.70
37158;DHT22;23050;51.776;22.638;2023-02-23T15:58:48;2.90;66.60
37158;DHT22;23050;51.776;22.638;2023-02-23T16:01:24;2.80;70.80
37158;DHT22;23050;51.776;22.638;2023-02-23T16:04:04;2.80;73.50
37158;DHT22;23050;51.776;22.638;2023-02-23T16:09:00;2.60;81.00
37158;DHT22;23050;51.776;22.638;2023-02-23T16:11:36;2.60;81.30
37158;DHT22;23050;51.776;22.638;2023-02-23T16:14:03;2.60;81.10
37158;DHT22;23050;51.776;22.638;2023-02-23T16:16:33;2.60;81.70
37158;DHT22;23050;51.776;22.638;2023-02-23T16:18:59;2.50;84.80
37158;DHT22;23050;51.776;22.638;2023-02-23T16:21:28;2.40;85.70
37158;DHT22;23050;51.776;22.638;2023-02-23T16:24:04;2.40;88.20
37158;DHT22;23050;51.776;22.638;2023-02-23T16:26:40;2.40;88.30
37158;DHT22;23050;51.776;22.638;2023-02-23T16:29:13;2.40;90.20
37158;DHT22;23050;51.776;22.638;2023-02-23T16:31:49;2.30;90.40
37158;DHT22;23050;51.776;22.638;2023-02-23T16:34:18;2.30;91.50
37158;DHT22;23050;51.776;22.638;2023-02-23T16:36:48;2.20;92.30
37158;DHT22;23050;51.776;22.638;2023-02-23T16:39:14;2.20;93.20
37158;DHT22;23050;51.776;22.638;2023-02-23T16:41:43;2.10;93.80
37158;DHT22;23050;51.776;22.638;2023-02-23T16:44:16;2.10;94.20
37158;DHT22;23050;51.776;22.638;2023-02-23T16:49:26;2.00;95.50
37158;DHT22;23050;51.776;22.638;2023-02-23T16:51:55;1.90;96.00
37158;DHT22;23050;51.776;22.638;2023-02-23T16:54:20;1.80;96.50
37158;DHT22;23050;51.776;22.638;2023-02-23T16:56:47;1.80;97.20
37158;DHT22;23050;51.776;22.638;2023-02-23T16:59:15;1.70;97.70
37158;DHT22;23050;51.776;22.638;2023-02-23T17:01:41;1.70;98.80
37158;DHT22;23050;51.776;22.638;2023-02-23T17:04:18;1.70;99.30
37158;DHT22;23050;51.776;22.638;2023-02-23T17:06:44;1.70;99.90
37158;DHT22;23050;51.776;22.638;2023-02-23T17:09:12;1.60;99.90
37158;DHT22;23050;51.776;22.638;2023-02-23T17:11:39;1.60;99.90
37158;DHT22;23050;51.776;22.638;2023-02-23T17:14:05;1.60;99.90
37158;DHT22;23050;51.776;22.638;2023-02-23T17:16:31;1.50;99.90
37158;DHT22;23050;51.776;22.638;2023-02-23T17:18:56;1.60;99.90
37158;DHT22;23050;51.776;22.638;2023-02-23T17:21:24;1.50;99.90
37158;DHT22;23050;51.776;22.638;2023-02-23T17:23:51;1.50;99.90
37158;DHT22;23050;51.776;22.638;2023-02-23T17:26:19;1.50;99.90
37158;DHT22;23050;51.776;22.638;2023-02-23T17:28:45;1.50;99.90
37158;DHT22;23050;51.776;22.638;2023-02-23T17:31:12;1.50;99.90
37158;DHT22;23050;51.776;22.638;2023-02-23T17:33:39;1.50;99.90
37158;DHT22;23050;51.776;22.638;2023-02-23T17:36:08;1.40;99.90
37158;DHT22;23050;51.776;22.638;2023-02-23T17:38:35;1.40;99.90
37158;DHT22;23050;51.776;22.638;2023-02-23T17:41:06;1.30;99.90
37158;DHT22;23050;51.776;22.638;2023-02-23T17:43:33;1.40;99.90
37158;DHT22;23050;51.776;22.638;2023-02-23T17:45:58;1.40;99.90
37158;DHT22;23050;51.776;22.638;2023-02-23T17:48:26;1.40;99.90
37158;DHT22;23050;51.776;22.638;2023-02-23T17:50:59;1.30;99.90